テルアビブ / ベン・グリオン の空港の天気 - METARとTAF

ベン・グリオン国際空港(テルアビブ) ( LLBG / TLV ) - イスラエル ロード / テルアビブ
飛行場実況気象(Metar)
観測時間03/29 00:20 IDT (03/28 21:20 UTC)
風向・風速不定 1m/s
視程10km以上
天気現象
なし
気温14℃
湿度82%
気圧1017hPa
METARLLBG 282120Z VRB02KT CAVOK 14/11 Q1017 NOSIG
過去の天気等 Google飛行場航空写真 Wunderground天気予報

過去48時間のMETAR

飛行場予報(TAF)
発表時間: 3/28 20:05 IDT (3/28 17:05 UTC)
予報対象時間: 28日21時 IDT ~ 29日21時 IDT
風向・風速不定 2m/s
視程10km以上
なし
29日11時 IDT ~ 29日13時 IDT に徐々に
風向・風速北北西 4m/s
29日18時 IDT ~ 29日20時 IDT に徐々に
風向・風速北北東 3m/s
TAF LLBG 281705Z 2818/2918 VRB03KT CAVOK
BECMG 2908/2910 33008KT
BECMG 2915/2917 03005KT TX26/2911Z TN11/2902Z